sensor_id;sensor_type;location;lat;lon;timestamp;P1;durP1;ratioP1;P2;durP2;ratioP2
31128;SDS011;17777;48.770;8.944;2024-03-07T00:00:05;17.05;;;11.68;;
31128;SDS011;17777;48.770;8.944;2024-03-07T00:02:49;16.95;;;11.75;;
31128;SDS011;17777;48.770;8.944;2024-03-07T00:05:37;15.90;;;10.52;;
31128;SDS011;17777;48.770;8.944;2024-03-07T00:08:03;16.65;;;11.55;;
31128;SDS011;17777;48.770;8.944;2024-03-07T00:10:29;15.40;;;11.40;;
31128;SDS011;17777;48.770;8.944;2024-03-07T00:12:55;17.90;;;13.02;;
31128;SDS011;17777;48.770;8.944;2024-03-07T00:15:20;17.55;;;12.32;;
31128;SDS011;17777;48.770;8.944;2024-03-07T00:17:46;17.75;;;11.63;;
31128;SDS011;17777;48.770;8.944;2024-03-07T00:20:12;18.15;;;12.30;;
31128;SDS011;17777;48.770;8.944;2024-03-07T00:22:44;18.20;;;11.82;;
31128;SDS011;17777;48.770;8.944;2024-03-07T00:25:10;18.08;;;12.10;;
31128;SDS011;17777;48.770;8.944;2024-03-07T00:27:37;18.83;;;11.95;;
31128;SDS011;17777;48.770;8.944;2024-03-07T00:30:04;17.55;;;11.88;;
31128;SDS011;17777;48.770;8.944;2024-03-07T00:32:33;18.25;;;12.00;;
31128;SDS011;17777;48.770;8.944;2024-03-07T00:35:01;18.00;;;11.88;;
31128;SDS011;17777;48.770;8.944;2024-03-07T00:37:30;16.73;;;11.93;;
31128;SDS011;17777;48.770;8.944;2024-03-07T00:39:57;17.55;;;12.60;;
31128;SDS011;17777;48.770;8.944;2024-03-07T00:42:23;18.58;;;12.35;;
31128;SDS011;17777;48.770;8.944;2024-03-07T00:44:49;18.70;;;12.73;;
31128;SDS011;17777;48.770;8.944;2024-03-07T00:47:16;16.90;;;11.85;;
31128;SDS011;17777;48.770;8.944;2024-03-07T00:49:45;18.38;;;13.02;;
31128;SDS011;17777;48.770;8.944;2024-03-07T00:52:14;18.15;;;12.32;;
31128;SDS011;17777;48.770;8.944;2024-03-07T00:54:40;16.75;;;12.02;;
31128;SDS011;17777;48.770;8.944;2024-03-07T00:57:06;18.27;;;12.48;;
31128;SDS011;17777;48.770;8.944;2024-03-07T00:59:33;15.60;;;11.43;;
31128;SDS011;17777;48.770;8.944;2024-03-07T01:01:58;18.13;;;13.35;;
31128;SDS011;17777;48.770;8.944;2024-03-07T01:04:25;18.50;;;13.13;;
31128;SDS011;17777;48.770;8.944;2024-03-07T01:06:59;19.52;;;13.60;;
31128;SDS011;17777;48.770;8.944;2024-03-07T01:09:26;21.13;;;13.30;;
31128;SDS011;17777;48.770;8.944;2024-03-07T01:11:53;18.10;;;12.90;;
31128;SDS011;17777;48.770;8.944;2024-03-07T01:14:20;21.58;;;13.65;;
31128;SDS011;17777;48.770;8.944;2024-03-07T01:16:47;20.25;;;12.98;;
31128;SDS011;17777;48.770;8.944;2024-03-07T01:19:13;20.08;;;13.40;;
31128;SDS011;17777;48.770;8.944;2024-03-07T01:21:40;17.95;;;13.60;;
31128;SDS011;17777;48.770;8.944;2024-03-07T01:24:06;17.35;;;13.27;;
31128;SDS011;17777;48.770;8.944;2024-03-07T01:26:32;18.38;;;13.80;;
31128;SDS011;17777;48.770;8.944;2024-03-07T01:29:01;18.92;;;14.15;;
31128;SDS011;17777;48.770;8.944;2024-03-07T01:31:27;17.65;;;13.00;;
31128;SDS011;17777;48.770;8.944;2024-03-07T01:33:53;18.42;;;13.27;;
31128;SDS011;17777;48.770;8.944;2024-03-07T01:36:19;17.90;;;13.55;;
31128;SDS011;17777;48.770;8.944;2024-03-07T01:38:45;21.77;;;13.77;;
31128;SDS011;17777;48.770;8.944;2024-03-07T01:41:11;19.85;;;14.70;;
31128;SDS011;17777;48.770;8.944;2024-03-07T01:43:39;22.02;;;15.02;;
31128;SDS011;17777;48.770;8.944;2024-03-07T01:46:06;20.60;;;15.13;;
31128;SDS011;17777;48.770;8.944;2024-03-07T01:48:33;20.73;;;15.23;;
31128;SDS011;17777;48.770;8.944;2024-03-07T01:50:59;21.50;;;15.98;;
31128;SDS011;17777;48.770;8.944;2024-03-07T01:53:27;22.98;;;15.35;;
31128;SDS011;17777;48.770;8.944;2024-03-07T01:55:54;21.00;;;15.73;;
31128;SDS011;17777;48.770;8.944;2024-03-07T01:58:20;21.40;;;15.75;;
31128;SDS011;17777;48.770;8.944;2024-03-07T02:00:46;23.10;;;16.30;;
31128;SDS011;17777;48.770;8.944;2024-03-07T02:03:16;22.10;;;15.98;;
31128;SDS011;17777;48.770;8.944;2024-03-07T02:05:42;22.13;;;16.20;;
31128;SDS011;17777;48.770;8.944;2024-03-07T02:08:08;21.02;;;15.90;;
31128;SDS011;17777;48.770;8.944;2024-03-07T02:10:34;20.35;;;14.75;;
31128;SDS011;17777;48.770;8.944;2024-03-07T02:13:00;22.23;;;16.45;;
31128;SDS011;17777;48.770;8.944;2024-03-07T02:15:26;25.27;;;17.65;;
31128;SDS011;17777;48.770;8.944;2024-03-07T02:17:52;22.70;;;16.65;;
31128;SDS011;17777;48.770;8.944;2024-03-07T02:20:18;22.10;;;16.15;;
31128;SDS011;17777;48.770;8.944;2024-03-07T02:22:44;25.08;;;16.65;;
31128;SDS011;17777;48.770;8.944;2024-03-07T02:25:10;22.27;;;16.90;;
31128;SDS011;17777;48.770;8.944;2024-03-07T02:27:36;20.67;;;15.55;;
31128;SDS011;17777;48.770;8.944;2024-03-07T02:30:03;21.70;;;16.20;;
31128;SDS011;17777;48.770;8.944;2024-03-07T02:32:33;23.45;;;16.40;;
31128;SDS011;17777;48.770;8.944;2024-03-07T02:34:59;25.58;;;16.65;;
31128;SDS011;17777;48.770;8.944;2024-03-07T02:37:26;22.83;;;15.18;;
31128;SDS011;17777;48.770;8.944;2024-03-07T02:39:52;22.42;;;15.90;;
31128;SDS011;17777;48.770;8.944;2024-03-07T02:42:18;22.02;;;15.52;;
31128;SDS011;17777;48.770;8.944;2024-03-07T02:44:44;21.02;;;15.88;;
31128;SDS011;17777;48.770;8.944;2024-03-07T02:47:10;23.33;;;16.90;;
31128;SDS011;17777;48.770;8.944;2024-03-07T02:49:36;23.30;;;16.70;;
31128;SDS011;17777;48.770;8.944;2024-03-07T02:52:01;23.48;;;16.85;;
31128;SDS011;17777;48.770;8.944;2024-03-07T02:54:31;24.30;;;17.65;;
31128;SDS011;17777;48.770;8.944;2024-03-07T02:56:57;23.05;;;16.65;;
31128;SDS011;17777;48.770;8.944;2024-03-07T02:59:23;24.90;;;17.88;;
31128;SDS011;17777;48.770;8.944;2024-03-07T03:01:49;25.85;;;16.42;;
31128;SDS011;17777;48.770;8.944;2024-03-07T03:04:16;21.70;;;16.65;;
31128;SDS011;17777;48.770;8.944;2024-03-07T03:06:42;23.42;;;15.93;;
31128;SDS011;17777;48.770;8.944;2024-03-07T03:09:08;23.05;;;16.95;;
31128;SDS011;17777;48.770;8.944;2024-03-07T03:11:38;23.48;;;16.48;;
31128;SDS011;17777;48.770;8.944;2024-03-07T03:14:04;26.88;;;17.05;;
31128;SDS011;17777;48.770;8.944;2024-03-07T03:16:31;21.80;;;16.27;;
31128;SDS011;17777;48.770;8.944;2024-03-07T03:18:57;25.65;;;17.50;;
31128;SDS011;17777;48.770;8.944;2024-03-07T03:21:23;23.23;;;17.33;;
31128;SDS011;17777;48.770;8.944;2024-03-07T03:23:49;24.30;;;17.35;;
31128;SDS011;17777;48.770;8.944;2024-03-07T03:26:15;24.35;;;16.92;;
31128;SDS011;17777;48.770;8.944;2024-03-07T03:28:41;24.20;;;16.73;;
31128;SDS011;17777;48.770;8.944;2024-03-07T03:31:07;22.85;;;16.08;;
31128;SDS011;17777;48.770;8.944;2024-03-07T03:33:33;23.50;;;17.02;;
31128;SDS011;17777;48.770;8.944;2024-03-07T03:36:00;25.08;;;16.70;;
31128;SDS011;17777;48.770;8.944;2024-03-07T03:38:26;22.38;;;16.05;;
31128;SDS011;17777;48.770;8.944;2024-03-07T03:40:52;23.27;;;17.50;;
31128;SDS011;17777;48.770;8.944;2024-03-07T03:43:17;23.50;;;16.90;;
31128;SDS011;17777;48.770;8.944;2024-03-07T03:45:43;22.17;;;16.08;;
31128;SDS011;17777;48.770;8.944;2024-03-07T03:48:10;23.02;;;16.23;;
31128;SDS011;17777;48.770;8.944;2024-03-07T03:50:38;20.85;;;15.98;;
31128;SDS011;17777;48.770;8.944;2024-03-07T03:53:04;21.38;;;15.93;;
31128;SDS011;17777;48.770;8.944;2024-03-07T03:55:30;21.67;;;15.48;;
31128;SDS011;17777;48.770;8.944;2024-03-07T03:57:57;20.90;;;15.27;;
31128;SDS011;17777;48.770;8.944;2024-03-07T04:00:23;23.50;;;16.48;;
31128;SDS011;17777;48.770;8.944;2024-03-07T04:02:49;23.98;;;16.45;;
31128;SDS011;17777;48.770;8.944;2024-03-07T04:05:18;23.10;;;17.10;;
31128;SDS011;17777;48.770;8.944;2024-03-07T04:07:45;23.40;;;16.17;;
31128;SDS011;17777;48.770;8.944;2024-03-07T04:10:11;22.77;;;16.10;;
31128;SDS011;17777;48.770;8.944;2024-03-07T04:12:41;20.67;;;15.57;;
31128;SDS011;17777;48.770;8.944;2024-03-07T04:15:11;25.52;;;16.90;;
31128;SDS011;17777;48.770;8.944;2024-03-07T04:17:41;25.65;;;16.17;;
31128;SDS011;17777;48.770;8.944;2024-03-07T04:20:08;24.25;;;15.68;;
31128;SDS011;17777;48.770;8.944;2024-03-07T04:22:36;21.92;;;15.50;;
31128;SDS011;17777;48.770;8.944;2024-03-07T04:25:06;23.52;;;16.58;;
31128;SDS011;17777;48.770;8.944;2024-03-07T04:27:33;23.42;;;15.40;;
31128;SDS011;17777;48.770;8.944;2024-03-07T04:30:02;24.23;;;17.33;;
31128;SDS011;17777;48.770;8.944;2024-03-07T04:32:30;23.00;;;16.70;;
31128;SDS011;17777;48.770;8.944;2024-03-07T04:34:56;23.38;;;16.50;;
31128;SDS011;17777;48.770;8.944;2024-03-07T04:37:25;21.20;;;15.75;;
31128;SDS011;17777;48.770;8.944;2024-03-07T04:39:54;19.38;;;14.65;;
31128;SDS011;17777;48.770;8.944;2024-03-07T04:42:21;22.67;;;15.75;;
31128;SDS011;17777;48.770;8.944;2024-03-07T04:44:46;22.27;;;15.73;;
31128;SDS011;17777;48.770;8.944;2024-03-07T04:47:12;22.80;;;16.10;;
31128;SDS011;17777;48.770;8.944;2024-03-07T04:49:38;23.02;;;15.95;;
31128;SDS011;17777;48.770;8.944;2024-03-07T04:52:05;21.40;;;16.17;;
31128;SDS011;17777;48.770;8.944;2024-03-07T04:54:31;21.50;;;15.77;;
31128;SDS011;17777;48.770;8.944;2024-03-07T04:56:59;27.48;;;15.88;;
31128;SDS011;17777;48.770;8.944;2024-03-07T04:59:25;24.13;;;16.23;;
31128;SDS011;17777;48.770;8.944;2024-03-07T05:01:51;20.92;;;16.05;;
31128;SDS011;17777;48.770;8.944;2024-03-07T05:04:17;26.65;;;17.95;;
31128;SDS011;17777;48.770;8.944;2024-03-07T05:06:43;23.48;;;16.83;;
31128;SDS011;17777;48.770;8.944;2024-03-07T05:09:12;25.00;;;17.33;;
31128;SDS011;17777;48.770;8.944;2024-03-07T05:11:48;24.02;;;16.40;;
31128;SDS011;17777;48.770;8.944;2024-03-07T05:14:18;23.30;;;16.77;;
31128;SDS011;17777;48.770;8.944;2024-03-07T05:16:44;24.25;;;17.23;;
31128;SDS011;17777;48.770;8.944;2024-03-07T05:19:10;22.95;;;15.95;;
31128;SDS011;17777;48.770;8.944;2024-03-07T05:21:35;25.27;;;16.85;;
31128;SDS011;17777;48.770;8.944;2024-03-07T05:24:08;24.70;;;17.10;;
31128;SDS011;17777;48.770;8.944;2024-03-07T05:26:34;26.98;;;18.00;;
31128;SDS011;17777;48.770;8.944;2024-03-07T05:29:06;27.00;;;17.13;;
31128;SDS011;17777;48.770;8.944;2024-03-07T05:31:34;26.05;;;17.33;;
31128;SDS011;17777;48.770;8.944;2024-03-07T05:34:02;24.15;;;17.17;;
31128;SDS011;17777;48.770;8.944;2024-03-07T05:36:34;26.98;;;15.77;;
31128;SDS011;17777;48.770;8.944;2024-03-07T05:39:01;26.73;;;17.58;;
31128;SDS011;17777;48.770;8.944;2024-03-07T05:41:37;24.98;;;17.45;;
31128;SDS011;17777;48.770;8.944;2024-03-07T05:44:04;25.35;;;17.55;;
31128;SDS011;17777;48.770;8.944;2024-03-07T05:46:36;24.88;;;16.92;;
31128;SDS011;17777;48.770;8.944;2024-03-07T05:49:09;23.10;;;16.38;;
31128;SDS011;17777;48.770;8.944;2024-03-07T05:51:35;20.33;;;15.00;;
31128;SDS011;17777;48.770;8.944;2024-03-07T05:54:01;22.80;;;16.33;;
31128;SDS011;17777;48.770;8.944;2024-03-07T05:56:32;21.55;;;15.93;;
31128;SDS011;17777;48.770;8.944;2024-03-07T05:59:02;25.80;;;16.50;;
31128;SDS011;17777;48.770;8.944;2024-03-07T06:01:37;25.27;;;16.75;;
31128;SDS011;17777;48.770;8.944;2024-03-07T06:04:05;23.40;;;16.65;;
31128;SDS011;17777;48.770;8.944;2024-03-07T06:06:32;21.92;;;16.13;;
31128;SDS011;17777;48.770;8.944;2024-03-07T06:09:01;23.77;;;16.40;;
31128;SDS011;17777;48.770;8.944;2024-03-07T06:11:38;21.85;;;16.50;;
31128;SDS011;17777;48.770;8.944;2024-03-07T06:14:08;24.05;;;16.75;;
31128;SDS011;17777;48.770;8.944;2024-03-07T06:16:36;21.83;;;16.02;;
31128;SDS011;17777;48.770;8.944;2024-03-07T06:19:03;20.67;;;14.52;;
31128;SDS011;17777;48.770;8.944;2024-03-07T06:21:34;20.95;;;15.18;;
31128;SDS011;17777;48.770;8.944;2024-03-07T06:24:04;20.42;;;15.18;;
31128;SDS011;17777;48.770;8.944;2024-03-07T06:26:32;21.23;;;14.77;;
31128;SDS011;17777;48.770;8.944;2024-03-07T06:29:23;20.90;;;15.52;;
31128;SDS011;17777;48.770;8.944;2024-03-07T06:31:49;20.60;;;14.60;;
31128;SDS011;17777;48.770;8.944;2024-03-07T06:34:15;23.15;;;16.13;;
31128;SDS011;17777;48.770;8.944;2024-03-07T06:36:42;21.42;;;14.88;;
31128;SDS011;17777;48.770;8.944;2024-03-07T06:39:08;20.95;;;14.90;;
31128;SDS011;17777;48.770;8.944;2024-03-07T06:41:37;20.92;;;15.13;;
31128;SDS011;17777;48.770;8.944;2024-03-07T06:44:04;23.08;;;15.65;;
31128;SDS011;17777;48.770;8.944;2024-03-07T06:46:31;22.05;;;15.32;;
31128;SDS011;17777;48.770;8.944;2024-03-07T06:48:59;24.08;;;13.98;;
31128;SDS011;17777;48.770;8.944;2024-03-07T06:51:26;23.33;;;15.43;;
31128;SDS011;17777;48.770;8.944;2024-03-07T06:53:52;19.98;;;13.52;;
31128;SDS011;17777;48.770;8.944;2024-03-07T06:56:18;21.40;;;15.43;;
31128;SDS011;17777;48.770;8.944;2024-03-07T06:58:43;20.50;;;14.05;;
31128;SDS011;17777;48.770;8.944;2024-03-07T07:01:11;18.83;;;13.02;;
31128;SDS011;17777;48.770;8.944;2024-03-07T07:03:40;16.55;;;13.18;;
31128;SDS011;17777;48.770;8.944;2024-03-07T07:06:08;21.35;;;14.93;;
31128;SDS011;17777;48.770;8.944;2024-03-07T07:08:35;20.70;;;14.38;;
31128;SDS011;17777;48.770;8.944;2024-03-07T07:11:01;18.77;;;13.45;;
31128;SDS011;17777;48.770;8.944;2024-03-07T07:13:29;17.52;;;12.73;;
31128;SDS011;17777;48.770;8.944;2024-03-07T07:15:55;17.73;;;13.10;;
31128;SDS011;17777;48.770;8.944;2024-03-07T07:18:21;20.60;;;14.90;;
31128;SDS011;17777;48.770;8.944;2024-03-07T07:20:48;22.55;;;14.25;;
31128;SDS011;17777;48.770;8.944;2024-03-07T07:23:17;28.25;;;14.07;;
31128;SDS011;17777;48.770;8.944;2024-03-07T07:25:43;20.75;;;14.63;;
31128;SDS011;17777;48.770;8.944;2024-03-07T07:28:09;20.65;;;14.73;;
31128;SDS011;17777;48.770;8.944;2024-03-07T07:30:36;19.27;;;14.27;;
31128;SDS011;17777;48.770;8.944;2024-03-07T07:33:02;19.63;;;14.02;;
31128;SDS011;17777;48.770;8.944;2024-03-07T07:35:29;19.52;;;14.60;;
31128;SDS011;17777;48.770;8.944;2024-03-07T07:37:54;21.02;;;14.85;;
31128;SDS011;17777;48.770;8.944;2024-03-07T07:40:21;19.20;;;14.18;;
31128;SDS011;17777;48.770;8.944;2024-03-07T07:42:51;19.17;;;13.10;;
31128;SDS011;17777;48.770;8.944;2024-03-07T07:45:19;21.33;;;14.13;;
31128;SDS011;17777;48.770;8.944;2024-03-07T07:47:47;21.02;;;15.18;;
31128;SDS011;17777;48.770;8.944;2024-03-07T07:50:15;18.60;;;13.77;;
31128;SDS011;17777;48.770;8.944;2024-03-07T07:52:44;20.00;;;14.88;;
31128;SDS011;17777;48.770;8.944;2024-03-07T07:55:22;20.17;;;14.40;;
31128;SDS011;17777;48.770;8.944;2024-03-07T07:57:51;18.42;;;13.55;;
31128;SDS011;17777;48.770;8.944;2024-03-07T08:00:19;21.95;;;14.18;;
31128;SDS011;17777;48.770;8.944;2024-03-07T08:05:25;21.63;;;14.30;;
31128;SDS011;17777;48.770;8.944;2024-03-07T08:07:57;21.40;;;14.65;;
31128;SDS011;17777;48.770;8.944;2024-03-07T08:10:25;19.77;;;14.45;;
31128;SDS011;17777;48.770;8.944;2024-03-07T08:12:54;18.85;;;13.95;;
31128;SDS011;17777;48.770;8.944;2024-03-07T08:15:21;22.23;;;14.57;;
31128;SDS011;17777;48.770;8.944;2024-03-07T08:17:48;22.80;;;14.43;;
31128;SDS011;17777;48.770;8.944;2024-03-07T08:20:15;20.98;;;14.80;;
31128;SDS011;17777;48.770;8.944;2024-03-07T08:22:49;21.00;;;14.57;;
31128;SDS011;17777;48.770;8.944;2024-03-07T08:25:20;19.65;;;14.18;;
31128;SDS011;17777;48.770;8.944;2024-03-07T08:27:48;19.48;;;14.05;;
31128;SDS011;17777;48.770;8.944;2024-03-07T08:30:16;20.15;;;14.07;;
31128;SDS011;17777;48.770;8.944;2024-03-07T08:32:43;20.33;;;13.75;;
31128;SDS011;17777;48.770;8.944;2024-03-07T08:35:11;20.55;;;13.82;;
31128;SDS011;17777;48.770;8.944;2024-03-07T08:37:44;19.33;;;14.38;;
31128;SDS011;17777;48.770;8.944;2024-03-07T08:40:12;20.50;;;13.95;;
31128;SDS011;17777;48.770;8.944;2024-03-07T08:42:47;17.95;;;13.10;;
31128;SDS011;17777;48.770;8.944;2024-03-07T08:45:19;20.13;;;14.07;;
31128;SDS011;17777;48.770;8.944;2024-03-07T08:47:45;21.67;;;13.30;;
31128;SDS011;17777;48.770;8.944;2024-03-07T08:50:13;20.70;;;13.55;;
31128;SDS011;17777;48.770;8.944;2024-03-07T08:52:41;20.30;;;13.88;;
31128;SDS011;17777;48.770;8.944;2024-03-07T08:55:08;18.67;;;14.00;;
31128;SDS011;17777;48.770;8.944;2024-03-07T08:57:38;17.55;;;13.20;;
31128;SDS011;17777;48.770;8.944;2024-03-07T09:00:04;22.83;;;14.23;;
31128;SDS011;17777;48.770;8.944;2024-03-07T09:02:36;19.90;;;14.82;;
31128;SDS011;17777;48.770;8.944;2024-03-07T09:05:06;18.90;;;14.25;;
31128;SDS011;17777;48.770;8.944;2024-03-07T09:07:32;23.23;;;15.27;;
31128;SDS011;17777;48.770;8.944;2024-03-07T09:09:57;20.33;;;14.23;;
31128;SDS011;17777;48.770;8.944;2024-03-07T09:12:23;21.77;;;14.45;;
31128;SDS011;17777;48.770;8.944;2024-03-07T09:14:50;21.15;;;14.95;;
31128;SDS011;17777;48.770;8.944;2024-03-07T09:17:21;20.08;;;14.70;;
31128;SDS011;17777;48.770;8.944;2024-03-07T09:19:47;20.77;;;15.35;;
31128;SDS011;17777;48.770;8.944;2024-03-07T09:22:12;20.52;;;14.95;;
31128;SDS011;17777;48.770;8.944;2024-03-07T09:24:38;19.73;;;14.65;;
31128;SDS011;17777;48.770;8.944;2024-03-07T09:27:04;18.65;;;14.13;;
31128;SDS011;17777;48.770;8.944;2024-03-07T09:29:30;20.33;;;14.98;;
31128;SDS011;17777;48.770;8.944;2024-03-07T09:31:56;20.33;;;14.63;;
31128;SDS011;17777;48.770;8.944;2024-03-07T09:34:25;23.77;;;15.95;;
31128;SDS011;17777;48.770;8.944;2024-03-07T09:36:51;19.48;;;14.68;;
31128;SDS011;17777;48.770;8.944;2024-03-07T09:39:17;21.17;;;14.93;;
31128;SDS011;17777;48.770;8.944;2024-03-07T09:41:43;25.08;;;15.73;;
31128;SDS011;17777;48.770;8.944;2024-03-07T09:44:10;21.83;;;14.65;;
31128;SDS011;17777;48.770;8.944;2024-03-07T09:46:47;22.80;;;15.63;;
31128;SDS011;17777;48.770;8.944;2024-03-07T09:49:15;23.13;;;15.73;;
31128;SDS011;17777;48.770;8.944;2024-03-07T09:51:43;21.63;;;15.13;;
31128;SDS011;17777;48.770;8.944;2024-03-07T09:54:09;24.27;;;15.65;;
31128;SDS011;17777;48.770;8.944;2024-03-07T09:56:35;21.73;;;15.48;;
31128;SDS011;17777;48.770;8.944;2024-03-07T09:59:03;26.02;;;17.13;;
31128;SDS011;17777;48.770;8.944;2024-03-07T10:01:33;23.88;;;16.38;;
31128;SDS011;17777;48.770;8.944;2024-03-07T10:04:00;23.15;;;16.20;;
31128;SDS011;17777;48.770;8.944;2024-03-07T10:06:37;21.42;;;16.08;;
31128;SDS011;17777;48.770;8.944;2024-03-07T10:09:11;23.15;;;15.55;;
31128;SDS011;17777;48.770;8.944;2024-03-07T10:11:40;23.45;;;16.33;;
31128;SDS011;17777;48.770;8.944;2024-03-07T10:14:11;22.75;;;15.98;;
31128;SDS011;17777;48.770;8.944;2024-03-07T10:16:37;23.77;;;16.55;;
31128;SDS011;17777;48.770;8.944;2024-03-07T10:19:06;24.90;;;16.45;;
31128;SDS011;17777;48.770;8.944;2024-03-07T10:21:35;23.08;;;16.48;;
31128;SDS011;17777;48.770;8.944;2024-03-07T10:24:05;23.73;;;16.70;;
31128;SDS011;17777;48.770;8.944;2024-03-07T10:26:39;23.73;;;16.83;;
31128;SDS011;17777;48.770;8.944;2024-03-07T10:29:05;24.52;;;14.82;;
31128;SDS011;17777;48.770;8.944;2024-03-07T10:31:35;21.80;;;14.90;;
31128;SDS011;17777;48.770;8.944;2024-03-07T10:34:03;22.55;;;15.52;;
31128;SDS011;17777;48.770;8.944;2024-03-07T10:36:30;23.35;;;16.23;;
31128;SDS011;17777;48.770;8.944;2024-03-07T10:39:00;21.98;;;15.43;;
31128;SDS011;17777;48.770;8.944;2024-03-07T10:41:28;18.67;;;14.50;;
31128;SDS011;17777;48.770;8.944;2024-03-07T10:44:00;23.08;;;14.98;;
31128;SDS011;17777;48.770;8.944;2024-03-07T10:46:26;20.00;;;14.50;;
31128;SDS011;17777;48.770;8.944;2024-03-07T10:48:55;22.15;;;14.57;;
31128;SDS011;17777;48.770;8.944;2024-03-07T10:51:26;23.60;;;15.02;;
31128;SDS011;17777;48.770;8.944;2024-03-07T10:59:25;19.08;;;13.27;;
31128;SDS011;17777;48.770;8.944;2024-03-07T11:04:53;22.65;;;14.45;;
31128;SDS011;17777;48.770;8.944;2024-03-07T11:07:20;24.77;;;15.15;;
31128;SDS011;17777;48.770;8.944;2024-03-07T11:09:51;22.48;;;15.38;;
31128;SDS011;17777;48.770;8.944;2024-03-07T11:12:23;22.85;;;15.82;;
31128;SDS011;17777;48.770;8.944;2024-03-07T11:14:52;20.50;;;14.27;;
31128;SDS011;17777;48.770;8.944;2024-03-07T11:17:20;19.35;;;13.30;;
31128;SDS011;17777;48.770;8.944;2024-03-07T11:19:47;19.67;;;13.43;;
31128;SDS011;17777;48.770;8.944;2024-03-07T11:22:48;19.25;;;13.48;;
31128;SDS011;17777;48.770;8.944;2024-03-07T11:25:06;26.08;;;15.07;;
31128;SDS011;17777;48.770;8.944;2024-03-07T11:27:41;21.08;;;14.68;;
31128;SDS011;17777;48.770;8.944;2024-03-07T11:30:21;23.63;;;15.00;;
31128;SDS011;17777;48.770;8.944;2024-03-07T11:32:48;21.73;;;14.82;;
31128;SDS011;17777;48.770;8.944;2024-03-07T11:35:31;25.17;;;16.80;;
31128;SDS011;17777;48.770;8.944;2024-03-07T11:38:00;22.63;;;14.27;;
31128;SDS011;17777;48.770;8.944;2024-03-07T11:42:55;22.10;;;15.05;;
31128;SDS011;17777;48.770;8.944;2024-03-07T11:45:25;19.05;;;13.20;;
31128;SDS011;17777;48.770;8.944;2024-03-07T11:47:55;21.23;;;12.55;;
31128;SDS011;17777;48.770;8.944;2024-03-07T11:50:40;18.90;;;13.05;;
31128;SDS011;17777;48.770;8.944;2024-03-07T11:53:07;20.23;;;13.35;;
31128;SDS011;17777;48.770;8.944;2024-03-07T11:55:34;17.77;;;12.32;;
31128;SDS011;17777;48.770;8.944;2024-03-07T11:58:13;20.35;;;13.27;;
31128;SDS011;17777;48.770;8.944;2024-03-07T12:00:46;19.17;;;13.10;;
31128;SDS011;17777;48.770;8.944;2024-03-07T12:03:14;22.08;;;12.43;;
31128;SDS011;17777;48.770;8.944;2024-03-07T12:05:46;20.65;;;13.95;;
31128;SDS011;17777;48.770;8.944;2024-03-07T12:08:13;22.30;;;14.80;;
31128;SDS011;17777;48.770;8.944;2024-03-07T12:10:40;19.90;;;13.80;;
31128;SDS011;17777;48.770;8.944;2024-03-07T12:13:12;17.65;;;13.00;;
31128;SDS011;17777;48.770;8.944;2024-03-07T12:15:40;20.98;;;13.40;;
31128;SDS011;17777;48.770;8.944;2024-03-07T12:18:07;19.77;;;14.00;;
31128;SDS011;17777;48.770;8.944;2024-03-07T12:20:35;19.60;;;13.57;;
31128;SDS011;17777;48.770;8.944;2024-03-07T12:23:02;20.23;;;12.93;;
31128;SDS011;17777;48.770;8.944;2024-03-07T12:25:33;19.98;;;13.20;;
31128;SDS011;17777;48.770;8.944;2024-03-07T12:28:02;22.52;;;13.73;;
31128;SDS011;17777;48.770;8.944;2024-03-07T12:30:36;21.98;;;13.82;;
31128;SDS011;17777;48.770;8.944;2024-03-07T12:33:15;19.65;;;12.88;;
31128;SDS011;17777;48.770;8.944;2024-03-07T12:35:43;18.02;;;11.82;;
31128;SDS011;17777;48.770;8.944;2024-03-07T12:38:10;19.23;;;13.00;;
31128;SDS011;17777;48.770;8.944;2024-03-07T12:40:41;21.13;;;13.30;;
31128;SDS011;17777;48.770;8.944;2024-03-07T12:43:18;21.30;;;14.40;;
31128;SDS011;17777;48.770;8.944;2024-03-07T12:45:48;18.90;;;13.15;;
31128;SDS011;17777;48.770;8.944;2024-03-07T12:48:18;18.92;;;12.68;;
31128;SDS011;17777;48.770;8.944;2024-03-07T12:50:47;20.50;;;13.50;;
31128;SDS011;17777;48.770;8.944;2024-03-07T12:53:21;20.55;;;13.18;;
31128;SDS011;17777;48.770;8.944;2024-03-07T12:55:48;20.15;;;13.98;;
31128;SDS011;17777;48.770;8.944;2024-03-07T12:58:14;22.55;;;14.43;;
31128;SDS011;17777;48.770;8.944;2024-03-07T13:00:40;19.85;;;13.27;;
31128;SDS011;17777;48.770;8.944;2024-03-07T13:03:07;24.05;;;14.85;;
31128;SDS011;17777;48.770;8.944;2024-03-07T13:05:34;20.10;;;13.40;;
31128;SDS011;17777;48.770;8.944;2024-03-07T13:08:07;23.08;;;13.93;;
31128;SDS011;17777;48.770;8.944;2024-03-07T13:10:39;19.60;;;14.43;;
31128;SDS011;17777;48.770;8.944;2024-03-07T13:13:07;23.40;;;15.05;;
31128;SDS011;17777;48.770;8.944;2024-03-07T13:15:36;21.10;;;14.05;;
31128;SDS011;17777;48.770;8.944;2024-03-07T13:18:04;20.95;;;13.88;;
31128;SDS011;17777;48.770;8.944;2024-03-07T13:20:31;22.05;;;14.27;;
31128;SDS011;17777;48.770;8.944;2024-03-07T13:22:57;21.15;;;14.27;;
31128;SDS011;17777;48.770;8.944;2024-03-07T13:25:26;20.77;;;14.45;;
31128;SDS011;17777;48.770;8.944;2024-03-07T13:28:06;22.60;;;14.15;;
31128;SDS011;17777;48.770;8.944;2024-03-07T13:30:49;21.48;;;14.88;;
31128;SDS011;17777;48.770;8.944;2024-03-07T13:33:16;23.70;;;15.80;;
31128;SDS011;17777;48.770;8.944;2024-03-07T13:35:43;24.67;;;15.23;;
31128;SDS011;17777;48.770;8.944;2024-03-07T13:38:09;23.88;;;16.13;;
31128;SDS011;17777;48.770;8.944;2024-03-07T13:40:35;25.90;;;14.82;;
31128;SDS011;17777;48.770;8.944;2024-03-07T13:43:04;23.00;;;15.30;;
31128;SDS011;17777;48.770;8.944;2024-03-07T13:45:31;22.48;;;14.10;;
31128;SDS011;17777;48.770;8.944;2024-03-07T13:48:04;20.90;;;14.32;;
31128;SDS011;17777;48.770;8.944;2024-03-07T13:50:32;20.33;;;13.85;;
31128;SDS011;17777;48.770;8.944;2024-03-07T13:53:00;23.17;;;15.18;;
31128;SDS011;17777;48.770;8.944;2024-03-07T14:05:06;20.63;;;13.70;;
31128;SDS011;17777;48.770;8.944;2024-03-07T14:10:53;23.52;;;14.27;;
31128;SDS011;17777;48.770;8.944;2024-03-07T14:29:43;17.80;;;13.05;;
31128;SDS011;17777;48.770;8.944;2024-03-07T14:32:35;21.43;;;15.03;;
31128;SDS011;17777;48.770;8.944;2024-03-07T14:37:53;19.83;;;14.63;;
31128;SDS011;17777;48.770;8.944;2024-03-07T14:40:50;19.63;;;14.02;;
31128;SDS011;17777;48.770;8.944;2024-03-07T14:43:17;20.67;;;14.48;;
31128;SDS011;17777;48.770;8.944;2024-03-07T14:45:45;20.65;;;14.32;;
31128;SDS011;17777;48.770;8.944;2024-03-07T14:48:12;20.92;;;15.23;;
31128;SDS011;17777;48.770;8.944;2024-03-07T14:50:42;19.00;;;14.30;;
31128;SDS011;17777;48.770;8.944;2024-03-07T14:53:10;19.77;;;14.52;;
31128;SDS011;17777;48.770;8.944;2024-03-07T14:55:38;20.48;;;14.90;;
31128;SDS011;17777;48.770;8.944;2024-03-07T14:58:05;21.40;;;15.20;;
31128;SDS011;17777;48.770;8.944;2024-03-07T15:00:34;20.40;;;14.77;;
31128;SDS011;17777;48.770;8.944;2024-03-07T15:03:07;23.10;;;15.00;;
31128;SDS011;17777;48.770;8.944;2024-03-07T15:05:42;22.65;;;13.82;;
31128;SDS011;17777;48.770;8.944;2024-03-07T15:08:10;20.67;;;14.85;;
31128;SDS011;17777;48.770;8.944;2024-03-07T15:10:37;21.88;;;15.48;;
31128;SDS011;17777;48.770;8.944;2024-03-07T15:13:11;20.95;;;15.50;;